sensor_id;sensor_type;location;lat;lon;timestamp;P1;durP1;ratioP1;P2;durP2;ratioP2
13432;SDS011;6789;47.678;9.158;2023-04-03T00:01:36;3.83;;;3.10;;
13432;SDS011;6789;47.678;9.158;2023-04-03T00:06:29;4.37;;;3.10;;
13432;SDS011;6789;47.678;9.158;2023-04-03T00:11:21;3.80;;;3.40;;
13432;SDS011;6789;47.678;9.158;2023-04-03T00:16:12;5.53;;;3.90;;
13432;SDS011;6789;47.678;9.158;2023-04-03T00:21:05;4.50;;;3.50;;
13432;SDS011;6789;47.678;9.158;2023-04-03T00:25:58;3.70;;;3.30;;
13432;SDS011;6789;47.678;9.158;2023-04-03T00:30:50;4.13;;;3.70;;
13432;SDS011;6789;47.678;9.158;2023-04-03T00:35:42;4.77;;;3.73;;
13432;SDS011;6789;47.678;9.158;2023-04-03T00:40:36;5.93;;;4.00;;
13432;SDS011;6789;47.678;9.158;2023-04-03T00:50:31;7.13;;;3.80;;
13432;SDS011;6789;47.678;9.158;2023-04-03T00:55:28;4.17;;;3.43;;
13432;SDS011;6789;47.678;9.158;2023-04-03T01:00:21;4.47;;;3.73;;
13432;SDS011;6789;47.678;9.158;2023-04-03T01:05:14;5.17;;;4.00;;
13432;SDS011;6789;47.678;9.158;2023-04-03T01:10:11;5.73;;;3.80;;
13432;SDS011;6789;47.678;9.158;2023-04-03T01:15:11;5.37;;;4.23;;
13432;SDS011;6789;47.678;9.158;2023-04-03T01:20:14;7.27;;;4.87;;
13432;SDS011;6789;47.678;9.158;2023-04-03T01:25:19;4.73;;;3.87;;
13432;SDS011;6789;47.678;9.158;2023-04-03T01:30:10;4.80;;;3.80;;
13432;SDS011;6789;47.678;9.158;2023-04-03T01:35:08;4.50;;;3.47;;
13432;SDS011;6789;47.678;9.158;2023-04-03T01:40:01;5.70;;;3.27;;
13432;SDS011;6789;47.678;9.158;2023-04-03T01:44:54;3.30;;;3.00;;
13432;SDS011;6789;47.678;9.158;2023-04-03T01:49:46;3.57;;;3.00;;
13432;SDS011;6789;47.678;9.158;2023-04-03T01:54:38;3.70;;;3.20;;
13432;SDS011;6789;47.678;9.158;2023-04-03T01:59:29;3.20;;;2.90;;
13432;SDS011;6789;47.678;9.158;2023-04-03T02:04:21;3.20;;;2.90;;
13432;SDS011;6789;47.678;9.158;2023-04-03T02:09:13;3.93;;;3.23;;
13432;SDS011;6789;47.678;9.158;2023-04-03T02:14:05;4.80;;;4.20;;
13432;SDS011;6789;47.678;9.158;2023-04-03T02:18:58;4.63;;;3.40;;
13432;SDS011;6789;47.678;9.158;2023-04-03T02:23:49;5.07;;;3.50;;
13432;SDS011;6789;47.678;9.158;2023-04-03T02:28:41;4.50;;;3.87;;
13432;SDS011;6789;47.678;9.158;2023-04-03T02:33:33;5.00;;;3.87;;
13432;SDS011;6789;47.678;9.158;2023-04-03T02:38:27;5.73;;;4.70;;
13432;SDS011;6789;47.678;9.158;2023-04-03T02:43:19;5.10;;;3.93;;
13432;SDS011;6789;47.678;9.158;2023-04-03T02:48:11;5.17;;;4.47;;
13432;SDS011;6789;47.678;9.158;2023-04-03T02:53:03;7.33;;;4.77;;
13432;SDS011;6789;47.678;9.158;2023-04-03T02:57:54;6.50;;;4.37;;
13432;SDS011;6789;47.678;9.158;2023-04-03T03:02:46;5.63;;;3.80;;
13432;SDS011;6789;47.678;9.158;2023-04-03T03:07:40;5.37;;;4.00;;
13432;SDS011;6789;47.678;9.158;2023-04-03T03:12:31;5.23;;;4.07;;
13432;SDS011;6789;47.678;9.158;2023-04-03T03:17:24;4.93;;;4.17;;
13432;SDS011;6789;47.678;9.158;2023-04-03T03:22:16;4.60;;;3.53;;
13432;SDS011;6789;47.678;9.158;2023-04-03T03:27:08;4.43;;;3.60;;
13432;SDS011;6789;47.678;9.158;2023-04-03T03:31:59;4.73;;;3.50;;
13432;SDS011;6789;47.678;9.158;2023-04-03T03:36:51;5.10;;;3.57;;
13432;SDS011;6789;47.678;9.158;2023-04-03T03:41:43;4.93;;;3.17;;
13432;SDS011;6789;47.678;9.158;2023-04-03T03:46:34;5.53;;;3.80;;
13432;SDS011;6789;47.678;9.158;2023-04-03T03:51:27;4.23;;;3.13;;
13432;SDS011;6789;47.678;9.158;2023-04-03T03:56:34;4.00;;;2.90;;
13432;SDS011;6789;47.678;9.158;2023-04-03T04:01:41;4.37;;;2.90;;
13432;SDS011;6789;47.678;9.158;2023-04-03T04:06:33;4.30;;;2.47;;
13432;SDS011;6789;47.678;9.158;2023-04-03T04:11:24;3.00;;;2.40;;
13432;SDS011;6789;47.678;9.158;2023-04-03T04:16:18;2.97;;;2.33;;
13432;SDS011;6789;47.678;9.158;2023-04-03T04:21:10;2.97;;;2.23;;
13432;SDS011;6789;47.678;9.158;2023-04-03T04:26:02;4.03;;;2.60;;
13432;SDS011;6789;47.678;9.158;2023-04-03T04:30:53;2.50;;;2.23;;
13432;SDS011;6789;47.678;9.158;2023-04-03T04:35:46;3.33;;;2.33;;
13432;SDS011;6789;47.678;9.158;2023-04-03T04:40:39;3.27;;;1.97;;
13432;SDS011;6789;47.678;9.158;2023-04-03T04:45:35;2.83;;;2.40;;
13432;SDS011;6789;47.678;9.158;2023-04-03T04:50:27;3.23;;;2.20;;
13432;SDS011;6789;47.678;9.158;2023-04-03T04:55:18;3.30;;;2.17;;
13432;SDS011;6789;47.678;9.158;2023-04-03T05:00:10;3.17;;;2.60;;
13432;SDS011;6789;47.678;9.158;2023-04-03T05:05:03;4.93;;;2.43;;
13432;SDS011;6789;47.678;9.158;2023-04-03T05:09:55;3.60;;;2.27;;
13432;SDS011;6789;47.678;9.158;2023-04-03T05:14:47;3.83;;;2.30;;
13432;SDS011;6789;47.678;9.158;2023-04-03T05:19:39;3.30;;;2.23;;
13432;SDS011;6789;47.678;9.158;2023-04-03T05:24:31;2.30;;;2.10;;
13432;SDS011;6789;47.678;9.158;2023-04-03T05:29:22;2.97;;;2.00;;
13432;SDS011;6789;47.678;9.158;2023-04-03T05:34:15;2.60;;;2.13;;
13432;SDS011;6789;47.678;9.158;2023-04-03T05:39:07;2.17;;;1.97;;
13432;SDS011;6789;47.678;9.158;2023-04-03T05:43:59;2.70;;;2.00;;
13432;SDS011;6789;47.678;9.158;2023-04-03T05:48:52;3.03;;;2.40;;
13432;SDS011;6789;47.678;9.158;2023-04-03T05:53:44;2.83;;;1.93;;
13432;SDS011;6789;47.678;9.158;2023-04-03T05:58:37;3.07;;;1.73;;
13432;SDS011;6789;47.678;9.158;2023-04-03T06:03:29;2.70;;;2.13;;
13432;SDS011;6789;47.678;9.158;2023-04-03T06:08:22;3.00;;;1.90;;
13432;SDS011;6789;47.678;9.158;2023-04-03T06:13:15;2.33;;;2.00;;
13432;SDS011;6789;47.678;9.158;2023-04-03T06:18:06;2.13;;;1.60;;
13432;SDS011;6789;47.678;9.158;2023-04-03T06:22:59;2.50;;;1.93;;
13432;SDS011;6789;47.678;9.158;2023-04-03T06:28:05;4.20;;;2.10;;
13432;SDS011;6789;47.678;9.158;2023-04-03T06:33:11;2.40;;;2.20;;
13432;SDS011;6789;47.678;9.158;2023-04-03T06:38:04;2.73;;;2.03;;
13432;SDS011;6789;47.678;9.158;2023-04-03T06:43:00;3.23;;;2.30;;
13432;SDS011;6789;47.678;9.158;2023-04-03T06:47:53;3.73;;;2.07;;
13432;SDS011;6789;47.678;9.158;2023-04-03T06:52:45;2.70;;;2.10;;
13432;SDS011;6789;47.678;9.158;2023-04-03T06:57:41;2.90;;;2.27;;
13432;SDS011;6789;47.678;9.158;2023-04-03T07:02:39;2.37;;;2.17;;
13432;SDS011;6789;47.678;9.158;2023-04-03T07:07:31;3.77;;;2.20;;
13432;SDS011;6789;47.678;9.158;2023-04-03T07:12:33;3.33;;;2.20;;
13432;SDS011;6789;47.678;9.158;2023-04-03T07:17:41;3.53;;;2.43;;
13432;SDS011;6789;47.678;9.158;2023-04-03T07:22:47;3.37;;;2.17;;
13432;SDS011;6789;47.678;9.158;2023-04-03T07:27:39;2.70;;;2.10;;
13432;SDS011;6789;47.678;9.158;2023-04-03T07:32:45;2.70;;;2.00;;
13432;SDS011;6789;47.678;9.158;2023-04-03T07:37:52;3.10;;;2.50;;
13432;SDS011;6789;47.678;9.158;2023-04-03T07:42:58;2.90;;;2.40;;
13432;SDS011;6789;47.678;9.158;2023-04-03T07:47:53;2.93;;;2.00;;
13432;SDS011;6789;47.678;9.158;2023-04-03T07:52:46;2.70;;;2.33;;
13432;SDS011;6789;47.678;9.158;2023-04-03T07:57:40;4.63;;;2.60;;
13432;SDS011;6789;47.678;9.158;2023-04-03T08:02:33;2.40;;;2.20;;
13432;SDS011;6789;47.678;9.158;2023-04-03T08:07:28;3.80;;;2.70;;
13432;SDS011;6789;47.678;9.158;2023-04-03T08:12:20;2.93;;;2.50;;
13432;SDS011;6789;47.678;9.158;2023-04-03T08:17:28;4.37;;;2.60;;
13432;SDS011;6789;47.678;9.158;2023-04-03T08:22:22;4.00;;;3.07;;
13432;SDS011;6789;47.678;9.158;2023-04-03T08:27:14;2.87;;;2.60;;
13432;SDS011;6789;47.678;9.158;2023-04-03T08:32:06;6.17;;;2.80;;
13432;SDS011;6789;47.678;9.158;2023-04-03T08:36:58;4.33;;;2.80;;
13432;SDS011;6789;47.678;9.158;2023-04-03T08:41:50;3.17;;;2.83;;
13432;SDS011;6789;47.678;9.158;2023-04-03T08:52:12;4.67;;;2.87;;
13432;SDS011;6789;47.678;9.158;2023-04-03T08:57:09;7.23;;;2.90;;
13432;SDS011;6789;47.678;9.158;2023-04-03T09:02:04;5.10;;;3.50;;
13432;SDS011;6789;47.678;9.158;2023-04-03T09:07:20;4.17;;;3.30;;
13432;SDS011;6789;47.678;9.158;2023-04-03T09:12:34;8.60;;;3.63;;
13432;SDS011;6789;47.678;9.158;2023-04-03T09:28:15;4.17;;;2.90;;
13432;SDS011;6789;47.678;9.158;2023-04-03T09:33:13;4.20;;;2.77;;
13432;SDS011;6789;47.678;9.158;2023-04-03T09:43:19;12.33;;;4.07;;
13432;SDS011;6789;47.678;9.158;2023-04-03T09:48:25;4.07;;;2.60;;
13432;SDS011;6789;47.678;9.158;2023-04-03T09:53:39;3.77;;;3.10;;
13432;SDS011;6789;47.678;9.158;2023-04-03T09:58:40;5.47;;;3.03;;
13432;SDS011;6789;47.678;9.158;2023-04-03T10:03:41;5.57;;;3.03;;
13432;SDS011;6789;47.678;9.158;2023-04-03T10:09:01;6.43;;;2.60;;
13432;SDS011;6789;47.678;9.158;2023-04-03T10:14:15;4.80;;;2.80;;
13432;SDS011;6789;47.678;9.158;2023-04-03T10:30:58;3.53;;;2.80;;
13432;SDS011;6789;47.678;9.158;2023-04-03T10:36:40;3.47;;;2.47;;
13432;SDS011;6789;47.678;9.158;2023-04-03T10:47:32;4.27;;;2.80;;
13432;SDS011;6789;47.678;9.158;2023-04-03T10:53:14;4.57;;;2.90;;
13432;SDS011;6789;47.678;9.158;2023-04-03T10:58:27;2.80;;;2.23;;
13432;SDS011;6789;47.678;9.158;2023-04-03T11:03:32;2.67;;;2.47;;
13432;SDS011;6789;47.678;9.158;2023-04-03T11:08:57;5.43;;;2.70;;
13432;SDS011;6789;47.678;9.158;2023-04-03T11:30:20;3.97;;;2.63;;
13432;SDS011;6789;47.678;9.158;2023-04-03T11:35:37;2.43;;;2.13;;
13432;SDS011;6789;47.678;9.158;2023-04-03T11:40:47;3.27;;;2.43;;
13432;SDS011;6789;47.678;9.158;2023-04-03T11:45:58;3.50;;;2.20;;
13432;SDS011;6789;47.678;9.158;2023-04-03T12:01:49;4.07;;;2.30;;
13432;SDS011;6789;47.678;9.158;2023-04-03T12:07:02;5.80;;;2.20;;
13432;SDS011;6789;47.678;9.158;2023-04-03T12:12:21;2.27;;;1.97;;
13432;SDS011;6789;47.678;9.158;2023-04-03T12:17:20;3.40;;;2.20;;
13432;SDS011;6789;47.678;9.158;2023-04-03T12:22:19;3.37;;;2.10;;
13432;SDS011;6789;47.678;9.158;2023-04-03T12:43:40;3.50;;;2.00;;
13432;SDS011;6789;47.678;9.158;2023-04-03T12:54:38;3.37;;;2.00;;
13432;SDS011;6789;47.678;9.158;2023-04-03T12:59:45;1.97;;;1.73;;
13432;SDS011;6789;47.678;9.158;2023-04-03T13:04:51;1.93;;;1.70;;
13432;SDS011;6789;47.678;9.158;2023-04-03T13:09:59;2.07;;;1.60;;
13432;SDS011;6789;47.678;9.158;2023-04-03T13:15:14;5.27;;;1.80;;
13432;SDS011;6789;47.678;9.158;2023-04-03T13:20:28;3.73;;;1.73;;
13432;SDS011;6789;47.678;9.158;2023-04-03T13:25:26;1.50;;;1.40;;
13432;SDS011;6789;47.678;9.158;2023-04-03T13:35:26;3.10;;;1.70;;
13432;SDS011;6789;47.678;9.158;2023-04-03T13:40:29;2.50;;;2.00;;
13432;SDS011;6789;47.678;9.158;2023-04-03T13:45:35;1.60;;;1.50;;
13432;SDS011;6789;47.678;9.158;2023-04-03T13:50:27;3.07;;;1.33;;
13432;SDS011;6789;47.678;9.158;2023-04-03T13:55:28;2.77;;;1.70;;
13432;SDS011;6789;47.678;9.158;2023-04-03T14:00:48;3.93;;;2.07;;
13432;SDS011;6789;47.678;9.158;2023-04-03T14:05:57;2.20;;;1.63;;
13432;SDS011;6789;47.678;9.158;2023-04-03T14:10:55;5.50;;;2.20;;
13432;SDS011;6789;47.678;9.158;2023-04-03T14:15:48;1.80;;;1.70;;
13432;SDS011;6789;47.678;9.158;2023-04-03T14:20:42;2.27;;;2.00;;
13432;SDS011;6789;47.678;9.158;2023-04-03T14:25:34;4.03;;;2.03;;
13432;SDS011;6789;47.678;9.158;2023-04-03T14:35:21;5.03;;;2.03;;
13432;SDS011;6789;47.678;9.158;2023-04-03T14:40:15;2.77;;;1.73;;
13432;SDS011;6789;47.678;9.158;2023-04-03T14:45:16;1.77;;;1.57;;
13432;SDS011;6789;47.678;9.158;2023-04-03T14:50:25;1.90;;;1.60;;
13432;SDS011;6789;47.678;9.158;2023-04-03T14:55:23;2.17;;;1.80;;
13432;SDS011;6789;47.678;9.158;2023-04-03T15:00:17;7.30;;;1.90;;
13432;SDS011;6789;47.678;9.158;2023-04-03T15:05:12;2.30;;;1.60;;
13432;SDS011;6789;47.678;9.158;2023-04-03T15:10:16;2.10;;;1.90;;
13432;SDS011;6789;47.678;9.158;2023-04-03T15:15:28;2.17;;;1.90;;
13432;SDS011;6789;47.678;9.158;2023-04-03T15:20:22;2.07;;;1.80;;
13432;SDS011;6789;47.678;9.158;2023-04-03T15:25:17;2.23;;;1.83;;
13432;SDS011;6789;47.678;9.158;2023-04-03T15:30:14;4.17;;;2.13;;
13432;SDS011;6789;47.678;9.158;2023-04-03T15:35:15;2.73;;;1.93;;
13432;SDS011;6789;47.678;9.158;2023-04-03T15:40:10;3.63;;;1.80;;
13432;SDS011;6789;47.678;9.158;2023-04-03T15:45:04;2.40;;;2.07;;
13432;SDS011;6789;47.678;9.158;2023-04-03T15:50:12;3.10;;;2.03;;
13432;SDS011;6789;47.678;9.158;2023-04-03T15:55:18;2.27;;;2.00;;
13432;SDS011;6789;47.678;9.158;2023-04-03T16:00:24;3.23;;;2.00;;
13432;SDS011;6789;47.678;9.158;2023-04-03T16:05:17;4.03;;;1.93;;
13432;SDS011;6789;47.678;9.158;2023-04-03T16:10:10;2.70;;;2.03;;
13432;SDS011;6789;47.678;9.158;2023-04-03T16:15:04;3.30;;;2.10;;
13432;SDS011;6789;47.678;9.158;2023-04-03T16:19:58;3.23;;;1.80;;
13432;SDS011;6789;47.678;9.158;2023-04-03T16:25:05;5.67;;;2.03;;
13432;SDS011;6789;47.678;9.158;2023-04-03T16:29:59;4.40;;;1.70;;
13432;SDS011;6789;47.678;9.158;2023-04-03T16:34:52;3.43;;;1.90;;
13432;SDS011;6789;47.678;9.158;2023-04-03T16:39:44;2.43;;;2.23;;
13432;SDS011;6789;47.678;9.158;2023-04-03T16:44:36;2.33;;;1.83;;
13432;SDS011;6789;47.678;9.158;2023-04-03T16:49:30;3.40;;;2.57;;
13432;SDS011;6789;47.678;9.158;2023-04-03T16:54:24;3.63;;;2.17;;
13432;SDS011;6789;47.678;9.158;2023-04-03T16:59:16;4.33;;;2.20;;
13432;SDS011;6789;47.678;9.158;2023-04-03T17:04:08;3.67;;;2.20;;
13432;SDS011;6789;47.678;9.158;2023-04-03T17:09:00;2.50;;;2.00;;
13432;SDS011;6789;47.678;9.158;2023-04-03T17:13:52;4.37;;;2.03;;
13432;SDS011;6789;47.678;9.158;2023-04-03T17:18:44;4.07;;;2.07;;
13432;SDS011;6789;47.678;9.158;2023-04-03T17:23:57;2.37;;;2.13;;
13432;SDS011;6789;47.678;9.158;2023-04-03T17:28:53;2.73;;;1.93;;
13432;SDS011;6789;47.678;9.158;2023-04-03T17:33:44;2.47;;;2.20;;
13432;SDS011;6789;47.678;9.158;2023-04-03T17:38:50;4.30;;;2.30;;
13432;SDS011;6789;47.678;9.158;2023-04-03T17:43:50;2.40;;;1.80;;
13432;SDS011;6789;47.678;9.158;2023-04-03T17:48:42;2.77;;;2.37;;
13432;SDS011;6789;47.678;9.158;2023-04-03T17:53:34;5.33;;;2.80;;
13432;SDS011;6789;47.678;9.158;2023-04-03T17:58:30;5.03;;;2.27;;
13432;SDS011;6789;47.678;9.158;2023-04-03T18:03:21;2.27;;;1.90;;
13432;SDS011;6789;47.678;9.158;2023-04-03T18:08:27;2.90;;;1.90;;
13432;SDS011;6789;47.678;9.158;2023-04-03T18:13:24;4.87;;;2.00;;
13432;SDS011;6789;47.678;9.158;2023-04-03T18:18:19;3.23;;;1.87;;
13432;SDS011;6789;47.678;9.158;2023-04-03T18:23:12;2.00;;;1.67;;
13432;SDS011;6789;47.678;9.158;2023-04-03T18:28:04;4.20;;;1.60;;
13432;SDS011;6789;47.678;9.158;2023-04-03T18:32:56;2.37;;;1.60;;
13432;SDS011;6789;47.678;9.158;2023-04-03T18:37:49;2.60;;;1.43;;
13432;SDS011;6789;47.678;9.158;2023-04-03T18:42:40;4.33;;;1.57;;
13432;SDS011;6789;47.678;9.158;2023-04-03T18:47:47;2.97;;;1.80;;
13432;SDS011;6789;47.678;9.158;2023-04-03T18:52:40;1.90;;;1.33;;
13432;SDS011;6789;47.678;9.158;2023-04-03T18:57:40;2.33;;;1.57;;
13432;SDS011;6789;47.678;9.158;2023-04-03T19:02:32;3.33;;;1.70;;
13432;SDS011;6789;47.678;9.158;2023-04-03T19:07:24;2.97;;;1.70;;
13432;SDS011;6789;47.678;9.158;2023-04-03T19:12:18;5.57;;;1.47;;
13432;SDS011;6789;47.678;9.158;2023-04-03T19:17:11;2.87;;;2.20;;
13432;SDS011;6789;47.678;9.158;2023-04-03T19:22:05;2.17;;;1.60;;
13432;SDS011;6789;47.678;9.158;2023-04-03T19:27:12;2.40;;;1.60;;
13432;SDS011;6789;47.678;9.158;2023-04-03T19:32:04;2.37;;;1.50;;
13432;SDS011;6789;47.678;9.158;2023-04-03T19:37:10;2.30;;;1.33;;
13432;SDS011;6789;47.678;9.158;2023-04-03T19:42:04;3.00;;;1.60;;
13432;SDS011;6789;47.678;9.158;2023-04-03T19:46:57;2.63;;;1.97;;
13432;SDS011;6789;47.678;9.158;2023-04-03T19:51:51;2.53;;;1.20;;
13432;SDS011;6789;47.678;9.158;2023-04-03T19:56:45;3.63;;;1.73;;
13432;SDS011;6789;47.678;9.158;2023-04-03T20:01:37;3.07;;;1.80;;
13432;SDS011;6789;47.678;9.158;2023-04-03T20:06:34;2.63;;;1.57;;
13432;SDS011;6789;47.678;9.158;2023-04-03T20:11:27;4.33;;;1.50;;
13432;SDS011;6789;47.678;9.158;2023-04-03T20:16:19;2.50;;;1.40;;
13432;SDS011;6789;47.678;9.158;2023-04-03T20:21:16;1.87;;;1.13;;
13432;SDS011;6789;47.678;9.158;2023-04-03T20:26:08;3.27;;;1.10;;
13432;SDS011;6789;47.678;9.158;2023-04-03T20:31:15;2.80;;;1.60;;
13432;SDS011;6789;47.678;9.158;2023-04-03T20:36:09;2.63;;;1.30;;
13432;SDS011;6789;47.678;9.158;2023-04-03T20:41:10;1.67;;;1.10;;
13432;SDS011;6789;47.678;9.158;2023-04-03T20:46:06;1.83;;;1.20;;
13432;SDS011;6789;47.678;9.158;2023-04-03T20:51:14;1.97;;;1.30;;
13432;SDS011;6789;47.678;9.158;2023-04-03T20:56:10;2.23;;;0.97;;
13432;SDS011;6789;47.678;9.158;2023-04-03T21:01:02;1.50;;;1.13;;
13432;SDS011;6789;47.678;9.158;2023-04-03T21:23:12;2.10;;;1.17;;
13432;SDS011;6789;47.678;9.158;2023-04-03T21:28:19;2.37;;;1.23;;
13432;SDS011;6789;47.678;9.158;2023-04-03T21:33:11;1.40;;;1.20;;
13432;SDS011;6789;47.678;9.158;2023-04-03T21:38:04;2.67;;;1.30;;
13432;SDS011;6789;47.678;9.158;2023-04-03T21:42:55;3.83;;;1.40;;
13432;SDS011;6789;47.678;9.158;2023-04-03T21:47:48;4.73;;;1.20;;
13432;SDS011;6789;47.678;9.158;2023-04-03T21:52:41;2.17;;;1.30;;
13432;SDS011;6789;47.678;9.158;2023-04-03T21:57:38;2.90;;;1.43;;
13432;SDS011;6789;47.678;9.158;2023-04-03T22:02:31;2.10;;;1.40;;
13432;SDS011;6789;47.678;9.158;2023-04-03T22:07:28;1.50;;;1.10;;
13432;SDS011;6789;47.678;9.158;2023-04-03T22:12:54;2.47;;;1.40;;
13432;SDS011;6789;47.678;9.158;2023-04-03T22:17:51;2.50;;;1.37;;
13432;SDS011;6789;47.678;9.158;2023-04-03T22:22:52;2.00;;;1.40;;
13432;SDS011;6789;47.678;9.158;2023-04-03T22:27:44;2.80;;;1.43;;
13432;SDS011;6789;47.678;9.158;2023-04-03T22:32:36;4.77;;;1.53;;
13432;SDS011;6789;47.678;9.158;2023-04-03T22:37:32;4.10;;;1.67;;
13432;SDS011;6789;47.678;9.158;2023-04-03T22:42:23;2.70;;;1.50;;
13432;SDS011;6789;47.678;9.158;2023-04-03T22:47:16;2.83;;;1.23;;
13432;SDS011;6789;47.678;9.158;2023-04-03T22:52:08;2.47;;;1.63;;
13432;SDS011;6789;47.678;9.158;2023-04-03T22:57:27;2.60;;;1.33;;
13432;SDS011;6789;47.678;9.158;2023-04-03T23:02:40;2.97;;;1.40;;
13432;SDS011;6789;47.678;9.158;2023-04-03T23:08:17;3.80;;;1.57;;
13432;SDS011;6789;47.678;9.158;2023-04-03T23:13:31;4.47;;;1.83;;
13432;SDS011;6789;47.678;9.158;2023-04-03T23:18:42;5.13;;;1.80;;
13432;SDS011;6789;47.678;9.158;2023-04-03T23:23:35;4.23;;;1.47;;
13432;SDS011;6789;47.678;9.158;2023-04-03T23:28:45;2.57;;;1.37;;
13432;SDS011;6789;47.678;9.158;2023-04-03T23:33:37;1.60;;;1.40;;
13432;SDS011;6789;47.678;9.158;2023-04-03T23:38:30;3.00;;;1.47;;
13432;SDS011;6789;47.678;9.158;2023-04-03T23:43:22;2.37;;;1.60;;
13432;SDS011;6789;47.678;9.158;2023-04-03T23:48:14;3.53;;;1.60;;
13432;SDS011;6789;47.678;9.158;2023-04-03T23:53:21;4.93;;;1.93;;
13432;SDS011;6789;47.678;9.158;2023-04-03T23:58:16;2.93;;;1.73;;
